createdAt,value
2023-02-02T00:01:42.427Z,3.59
2023-02-02T00:04:12.556Z,3.66
2023-02-02T00:06:39.694Z,3.72
2023-02-02T00:09:06.791Z,3.67
2023-02-02T00:11:34.010Z,3.71
2023-02-02T00:14:01.209Z,3.70
2023-02-02T00:16:28.368Z,3.72
2023-02-02T00:19:01.226Z,3.77
2023-02-02T00:21:28.640Z,3.83
2023-02-02T00:23:55.920Z,3.84
2023-02-02T00:26:23.295Z,3.84
2023-02-02T00:28:50.396Z,3.84
2023-02-02T00:31:17.532Z,3.88
2023-02-02T00:33:45.960Z,3.88
2023-02-02T00:36:13.017Z,3.91
2023-02-02T00:38:40.197Z,3.92
2023-02-02T00:41:07.371Z,3.95
2023-02-02T00:43:34.903Z,3.93
2023-02-02T00:46:02.182Z,3.93
2023-02-02T00:48:29.356Z,3.97
2023-02-02T00:50:57.372Z,3.97
2023-02-02T00:53:24.505Z,3.99
2023-02-02T00:55:51.643Z,3.98
2023-02-02T00:58:18.785Z,4.01
2023-02-02T01:01:18.032Z,3.98
2023-02-02T01:03:45.212Z,3.99
2023-02-02T01:06:13.043Z,4.01
2023-02-02T01:08:40.422Z,4.02
2023-02-02T01:11:08.104Z,3.99
2023-02-02T01:13:35.793Z,3.99
2023-02-02T01:16:03.621Z,3.96
2023-02-02T01:18:31.338Z,3.97
2023-02-02T01:21:03.657Z,3.96
2023-02-02T01:23:31.168Z,3.91
2023-02-02T01:25:59.956Z,3.92
2023-02-02T01:28:27.744Z,3.90
2023-02-02T01:30:55.234Z,3.94
2023-02-02T01:33:23.344Z,3.93
2023-02-02T01:35:52.696Z,3.88
2023-02-02T01:38:20.696Z,3.87
2023-02-02T01:40:53.033Z,3.86
2023-02-02T01:43:41.344Z,3.85
2023-02-02T01:46:13.238Z,3.89
2023-02-02T01:48:43.066Z,3.89
2023-02-02T01:51:14.893Z,3.89
2023-02-02T01:53:42.428Z,3.91
2023-02-02T01:56:12.957Z,3.94
2023-02-02T01:58:41.828Z,4.00
2023-02-02T02:01:09.054Z,3.98
2023-02-02T02:03:37.358Z,3.92
2023-02-02T02:06:10.724Z,3.94
2023-02-02T02:08:58.741Z,3.94
2023-02-02T02:11:26.494Z,3.97
2023-02-02T02:14:14.866Z,3.96
2023-02-02T02:17:19.707Z,3.96
2023-02-02T02:20:36.868Z,4.02
2023-02-02T02:23:37.459Z,4.03
2023-02-02T02:26:39.558Z,4.14
2023-02-02T02:29:28.498Z,4.13
2023-02-02T02:32:01.189Z,4.13
2023-02-02T02:34:52.952Z,4.15
2023-02-02T02:37:40.050Z,4.18
2023-02-02T02:40:07.396Z,4.24
2023-02-02T02:42:39.307Z,4.24
2023-02-02T02:45:07.991Z,4.26
2023-02-02T02:47:36.119Z,4.28
2023-02-02T02:50:04.244Z,4.35
2023-02-02T02:52:32.406Z,4.33
2023-02-02T02:55:01.159Z,4.35
2023-02-02T02:57:58.822Z,4.40
2023-02-02T03:00:48.788Z,4.42
2023-02-02T03:03:22.368Z,4.37
2023-02-02T03:05:57.908Z,4.40
2023-02-02T03:08:33.224Z,4.37
2023-02-02T03:11:02.264Z,4.37
2023-02-02T03:13:29.703Z,4.36
2023-02-02T03:15:56.796Z,4.40
2023-02-02T03:18:27.232Z,4.43
2023-02-02T03:20:54.336Z,4.47
2023-02-02T03:23:21.560Z,4.52
2023-02-02T03:25:48.901Z,4.46
2023-02-02T03:28:17.620Z,4.49
2023-02-02T03:30:46.217Z,4.44
2023-02-02T03:33:14.722Z,4.44
2023-02-02T03:35:42.035Z,4.46
2023-02-02T03:38:09.186Z,4.50
2023-02-02T03:40:36.329Z,4.50
2023-02-02T03:43:03.539Z,4.49
2023-02-02T03:45:32.026Z,4.50
2023-02-02T03:47:59.228Z,4.46
2023-02-02T03:50:26.346Z,4.43
2023-02-02T03:52:54.702Z,4.40
2023-02-02T03:55:22.193Z,4.44
2023-02-02T03:57:49.715Z,4.38
2023-02-02T04:00:17.004Z,4.36
2023-02-02T04:02:44.183Z,4.36
2023-02-02T04:05:11.272Z,4.36
2023-02-02T04:07:38.382Z,4.35
2023-02-02T04:10:05.803Z,4.37
2023-02-02T04:12:32.931Z,4.37
2023-02-02T04:15:00.117Z,4.35
2023-02-02T04:17:27.243Z,4.34
2023-02-02T04:19:58.053Z,4.31
2023-02-02T04:22:26.067Z,4.36
2023-02-02T04:24:53.412Z,4.35
2023-02-02T04:27:20.619Z,4.40
2023-02-02T04:29:47.736Z,4.37
2023-02-02T04:32:16.134Z,4.34
2023-02-02T04:34:43.606Z,4.32
2023-02-02T04:37:11.135Z,4.35
2023-02-02T04:39:38.244Z,4.35
2023-02-02T04:42:06.708Z,4.36
2023-02-02T04:44:33.903Z,4.40
2023-02-02T04:47:01.057Z,4.39
2023-02-02T04:49:28.222Z,4.38
2023-02-02T04:51:55.364Z,4.37
2023-02-02T04:54:22.481Z,4.39
2023-02-02T04:56:49.568Z,4.40
2023-02-02T04:59:16.720Z,4.36
2023-02-02T05:01:43.987Z,4.41
2023-02-02T05:04:11.579Z,4.43
2023-02-02T05:06:38.732Z,4.39
2023-02-02T05:09:05.905Z,4.44
2023-02-02T05:11:33.187Z,4.43
2023-02-02T05:14:00.374Z,4.46
2023-02-02T05:16:29.058Z,4.39
2023-02-02T05:18:59.275Z,4.37
2023-02-02T05:21:26.808Z,4.32
2023-02-02T05:23:54.207Z,4.33
2023-02-02T05:26:23.458Z,4.31
2023-02-02T05:28:50.646Z,4.31
2023-02-02T05:31:18.029Z,4.32
2023-02-02T05:33:45.725Z,4.31
2023-02-02T05:36:13.128Z,4.30
2023-02-02T05:38:40.286Z,4.27
2023-02-02T05:41:07.413Z,4.31
2023-02-02T05:43:34.832Z,4.29
2023-02-02T05:46:02.071Z,4.40
2023-02-02T05:48:29.379Z,4.40
2023-02-02T05:51:01.217Z,4.41
2023-02-02T05:53:30.206Z,4.41
2023-02-02T05:55:57.351Z,4.36
2023-02-02T05:58:24.502Z,4.34
2023-02-02T06:00:51.885Z,4.31
2023-02-02T06:03:19.452Z,4.29
2023-02-02T06:05:46.683Z,4.30
2023-02-02T06:08:13.761Z,4.28
2023-02-02T06:10:41.903Z,4.31
2023-02-02T06:13:09.264Z,4.28
2023-02-02T06:15:36.652Z,4.33
2023-02-02T06:18:06.551Z,4.31
2023-02-02T06:20:34.006Z,4.27
2023-02-02T06:23:01.151Z,4.27
2023-02-02T06:25:28.433Z,4.26
2023-02-02T06:27:59.603Z,4.28
2023-02-02T06:30:27.531Z,4.27
2023-02-02T06:32:54.754Z,4.26
2023-02-02T06:35:21.956Z,4.28
2023-02-02T06:37:49.190Z,4.28
2023-02-02T06:40:16.635Z,4.24
2023-02-02T06:42:43.761Z,4.31
2023-02-02T06:45:11.089Z,4.29
2023-02-02T06:47:38.170Z,4.34
2023-02-02T06:50:05.399Z,4.28
2023-02-02T06:52:32.508Z,4.25
2023-02-02T06:54:59.613Z,4.25
2023-02-02T06:57:26.786Z,4.25
2023-02-02T06:59:53.968Z,4.22
2023-02-02T07:02:23.251Z,4.28
2023-02-02T07:04:51.176Z,4.28
2023-02-02T07:07:18.300Z,4.27
2023-02-02T07:09:45.447Z,4.26
2023-02-02T07:12:12.597Z,4.20
2023-02-02T07:14:39.701Z,4.19
2023-02-02T07:17:06.829Z,4.19
2023-02-02T07:19:35.136Z,4.18
2023-02-02T07:22:02.272Z,4.19
2023-02-02T07:24:29.539Z,4.17
2023-02-02T07:26:57.964Z,4.22
2023-02-02T07:29:25.247Z,4.25
2023-02-02T07:31:52.451Z,4.23
2023-02-02T07:34:19.611Z,4.24
2023-02-02T07:36:46.724Z,4.26
2023-02-02T07:39:13.969Z,4.23
2023-02-02T07:41:41.213Z,4.17
2023-02-02T07:44:15.310Z,4.12
2023-02-02T07:46:43.990Z,4.13
2023-02-02T07:49:14.447Z,4.07
2023-02-02T07:51:46.373Z,4.08
2023-02-02T07:54:15.141Z,4.09
2023-02-02T07:56:42.264Z,4.14
2023-02-02T07:59:10.898Z,4.11
2023-02-02T08:01:38.113Z,4.10
2023-02-02T08:04:05.540Z,4.18
2023-02-02T08:06:35.183Z,4.20
2023-02-02T08:09:04.125Z,4.16
2023-02-02T08:11:31.519Z,4.19
2023-02-02T08:14:00.133Z,4.18
2023-02-02T08:16:28.780Z,4.17
2023-02-02T08:18:56.445Z,4.21
2023-02-02T08:21:24.108Z,4.27
2023-02-02T08:23:52.558Z,4.26
2023-02-02T08:26:28.297Z,4.30
2023-02-02T08:28:56.226Z,4.35
2023-02-02T08:31:43.747Z,4.35
2023-02-02T08:34:12.283Z,4.40
2023-02-02T08:36:39.566Z,4.46
2023-02-02T08:39:09.933Z,4.50
2023-02-02T08:41:37.604Z,4.60
2023-02-02T08:44:11.181Z,4.57
2023-02-02T08:46:38.577Z,4.58
2023-02-02T08:49:05.777Z,4.57
2023-02-02T08:51:32.895Z,4.58
2023-02-02T08:53:59.981Z,4.64
2023-02-02T08:56:27.172Z,4.68
2023-02-02T08:58:56.448Z,4.66
2023-02-02T09:01:24.580Z,4.72
2023-02-02T09:04:00.085Z,4.83
2023-02-02T09:06:40.771Z,4.89
2023-02-02T09:09:10.561Z,4.91
2023-02-02T09:11:37.777Z,4.89
2023-02-02T09:14:06.560Z,4.92
2023-02-02T09:16:34.786Z,5.00
2023-02-02T09:19:02.288Z,4.92
2023-02-02T09:21:30.457Z,4.89
2023-02-02T09:23:57.617Z,4.89
2023-02-02T09:26:26.939Z,4.98
2023-02-02T09:28:56.297Z,4.96
2023-02-02T09:31:24.333Z,4.93
2023-02-02T09:33:51.506Z,4.94
2023-02-02T09:36:21.237Z,4.92
2023-02-02T09:38:49.593Z,4.99
2023-02-02T09:41:16.602Z,5.08
2023-02-02T09:43:55.147Z,5.10
2023-02-02T09:46:45.254Z,5.22
2023-02-02T09:49:16.614Z,5.14
2023-02-02T09:51:49.140Z,5.20
2023-02-02T09:54:21.208Z,5.14
2023-02-02T09:56:51.310Z,5.15
2023-02-02T09:59:24.761Z,5.12
2023-02-02T10:01:58.068Z,5.13
2023-02-02T10:04:40.031Z,5.18
2023-02-02T10:07:20.493Z,5.20
2023-02-02T10:09:59.946Z,5.22
2023-02-02T10:12:47.297Z,5.20
2023-02-02T10:15:18.650Z,5.21
2023-02-02T10:17:57.746Z,5.25
2023-02-02T10:20:44.686Z,5.38
2023-02-02T10:23:38.483Z,5.30
2023-02-02T10:26:19.229Z,5.27
2023-02-02T10:29:08.929Z,5.28
2023-02-02T10:31:49.661Z,5.33
2023-02-02T10:34:31.910Z,5.35
2023-02-02T10:37:34.625Z,5.40
2023-02-02T10:40:10.602Z,5.50
2023-02-02T10:42:45.433Z,5.67
2023-02-02T10:45:18.725Z,5.77
2023-02-02T10:47:45.849Z,5.89
2023-02-02T10:50:13.055Z,5.94
2023-02-02T10:52:46.565Z,5.93
2023-02-02T10:55:19.456Z,5.92
2023-02-02T10:58:03.212Z,5.82
2023-02-02T11:00:46.223Z,5.88
2023-02-02T11:03:15.108Z,5.82
2023-02-02T11:06:01.386Z,5.73
2023-02-02T11:08:33.178Z,5.78
2023-02-02T11:11:22.469Z,5.81
2023-02-02T11:13:51.980Z,5.82
2023-02-02T11:16:22.039Z,5.81
2023-02-02T11:18:49.451Z,5.94
2023-02-02T11:21:29.815Z,6.03
2023-02-02T11:24:03.659Z,6.29
2023-02-02T11:26:48.957Z,6.29
2023-02-02T11:29:33.742Z,6.51
2023-02-02T11:32:27.383Z,6.75
2023-02-02T11:35:06.435Z,6.87
2023-02-02T11:37:53.048Z,6.91
2023-02-02T11:40:24.331Z,6.77
2023-02-02T11:42:53.068Z,6.73
2023-02-02T11:45:35.343Z,6.82
2023-02-02T11:48:08.189Z,6.82
2023-02-02T11:50:35.501Z,6.85
2023-02-02T11:53:02.753Z,6.66
2023-02-02T11:55:31.544Z,6.64
2023-02-02T11:58:18.324Z,6.65
2023-02-02T12:00:54.695Z,6.62
2023-02-02T12:03:39.140Z,6.55
2023-02-02T12:06:27.670Z,6.55
2023-02-02T12:09:01.253Z,6.54
2023-02-02T12:11:52.789Z,6.47
2023-02-02T12:15:03.014Z,6.44
2023-02-02T12:17:44.637Z,6.22
2023-02-02T12:20:49.258Z,6.00
2023-02-02T12:23:34.931Z,5.94
2023-02-02T12:26:10.874Z,5.94
2023-02-02T12:28:49.609Z,5.81
2023-02-02T12:31:16.733Z,5.72
2023-02-02T12:34:01.963Z,5.52
2023-02-02T12:36:38.698Z,5.46
2023-02-02T12:39:24.321Z,5.50
2023-02-02T12:42:13.432Z,5.67
2023-02-02T12:44:50.973Z,5.74
2023-02-02T12:47:28.356Z,6.74
2023-02-02T12:50:12.023Z,7.65
2023-02-02T12:52:45.072Z,8.57
2023-02-02T12:55:24.952Z,9.34
2023-02-02T12:58:06.313Z,10.23
2023-02-02T13:00:50.240Z,10.95
2023-02-02T13:03:27.710Z,11.13
2023-02-02T13:06:53.887Z,11.85
2023-02-02T13:09:27.484Z,11.79
2023-02-02T13:12:01.134Z,12.29
2023-02-02T13:14:57.476Z,12.88
2023-02-02T13:17:41.084Z,13.73
2023-02-02T13:20:21.457Z,13.21
2023-02-02T13:22:52.091Z,13.02
2023-02-02T13:25:27.035Z,12.02
2023-02-02T13:27:54.832Z,11.24
2023-02-02T13:30:31.755Z,10.76
2023-02-02T13:33:01.348Z,10.36
2023-02-02T13:35:36.778Z,9.83
2023-02-02T13:38:22.432Z,9.68
2023-02-02T13:40:50.665Z,9.73
2023-02-02T13:43:21.772Z,9.18
2023-02-02T13:46:24.237Z,8.79
2023-02-02T13:49:02.036Z,8.85
2023-02-02T13:51:54.725Z,9.33
2023-02-02T13:55:02.498Z,9.56
2023-02-02T13:57:52.863Z,9.53
2023-02-02T14:00:24.249Z,9.64
2023-02-02T14:02:55.376Z,9.79
2023-02-02T14:05:22.529Z,10.14
2023-02-02T14:08:01.916Z,9.77
2023-02-02T14:10:42.663Z,9.59
2023-02-02T14:13:36.673Z,9.57
2023-02-02T14:16:06.074Z,9.62
2023-02-02T14:18:51.387Z,9.72
2023-02-02T14:21:33.498Z,9.42
2023-02-02T14:24:05.024Z,9.31
2023-02-02T14:26:48.525Z,9.19
2023-02-02T14:29:35.947Z,9.22
2023-02-02T14:32:06.681Z,9.29
2023-02-02T14:34:39.264Z,9.13
2023-02-02T14:37:24.525Z,9.04
2023-02-02T14:40:06.474Z,8.56
2023-02-02T14:42:58.038Z,8.36
2023-02-02T14:45:51.156Z,7.96
2023-02-02T14:48:23.894Z,7.87
2023-02-02T14:50:58.463Z,7.93
2023-02-02T14:53:29.354Z,7.80
2023-02-02T14:56:05.426Z,7.63
2023-02-02T14:58:43.900Z,7.49
2023-02-02T15:01:25.420Z,7.27
2023-02-02T15:04:14.103Z,6.99
2023-02-02T15:06:43.033Z,6.93
2023-02-02T15:09:29.052Z,6.84
2023-02-02T15:12:00.819Z,6.90
2023-02-02T15:14:34.214Z,6.89
2023-02-02T15:17:20.241Z,6.93
2023-02-02T15:20:05.300Z,6.84
2023-02-02T15:22:43.068Z,6.89
2023-02-02T15:25:31.352Z,6.76
2023-02-02T15:28:01.407Z,6.74
2023-02-02T15:30:33.503Z,6.66
2023-02-02T15:33:08.036Z,6.62
2023-02-02T15:35:37.940Z,6.41
2023-02-02T15:38:07.360Z,6.31
2023-02-02T15:40:36.497Z,6.32
2023-02-02T15:43:06.217Z,6.31
2023-02-02T15:45:54.737Z,6.25
2023-02-02T15:48:30.118Z,6.07
2023-02-02T15:51:00.442Z,5.98
2023-02-02T15:53:28.749Z,5.98
2023-02-02T15:55:57.274Z,5.99
2023-02-02T15:58:32.772Z,5.99
2023-02-02T16:01:05.728Z,5.92
2023-02-02T16:03:46.811Z,5.83
2023-02-02T16:06:13.931Z,5.68
2023-02-02T16:08:41.842Z,5.63
2023-02-02T16:11:12.626Z,5.56
2023-02-02T16:13:40.626Z,5.56
2023-02-02T16:16:22.792Z,5.38
2023-02-02T16:19:05.395Z,5.30
2023-02-02T16:21:33.260Z,5.29
2023-02-02T16:24:00.753Z,5.34
2023-02-02T16:26:29.664Z,5.31
2023-02-02T16:28:57.087Z,5.28
2023-02-02T16:31:24.777Z,5.17
2023-02-02T16:33:51.955Z,5.00
2023-02-02T16:36:29.526Z,4.97
2023-02-02T16:38:58.315Z,4.91
2023-02-02T16:41:29.998Z,4.95
2023-02-02T16:44:35.647Z,4.94
2023-02-02T16:47:04.406Z,4.89
2023-02-02T16:49:31.575Z,4.90
2023-02-02T16:52:09.322Z,4.84
2023-02-02T16:54:36.674Z,4.75
2023-02-02T16:57:04.327Z,4.64
2023-02-02T16:59:33.931Z,4.56
2023-02-02T17:02:26.521Z,4.57
2023-02-02T17:05:05.964Z,4.56
2023-02-02T17:07:35.039Z,4.55
2023-02-02T17:10:19.243Z,4.49
2023-02-02T17:12:46.433Z,4.42
2023-02-02T17:15:16.414Z,4.43
2023-02-02T17:17:48.367Z,4.40
2023-02-02T17:20:16.888Z,4.38
2023-02-02T17:22:46.716Z,4.37
2023-02-02T17:25:18.773Z,4.30
2023-02-02T17:27:46.530Z,4.25
2023-02-02T17:30:16.854Z,4.26
2023-02-02T17:32:44.171Z,4.24
2023-02-02T17:35:16.496Z,4.19
2023-02-02T17:37:43.829Z,4.18
2023-02-02T17:40:17.426Z,4.15
2023-02-02T17:42:45.481Z,4.15
2023-02-02T17:45:24.808Z,4.14
2023-02-02T17:47:52.263Z,4.12
2023-02-02T17:50:20.680Z,4.09
2023-02-02T17:52:49.624Z,4.07
2023-02-02T17:55:23.821Z,4.03
2023-02-02T17:57:52.194Z,3.93
2023-02-02T18:00:22.423Z,3.92
2023-02-02T18:02:51.994Z,3.89
2023-02-02T18:05:19.443Z,3.88
2023-02-02T18:07:46.853Z,3.87
2023-02-02T18:10:14.904Z,3.84
2023-02-02T18:12:42.348Z,3.81
2023-02-02T18:15:13.156Z,3.80
2023-02-02T18:17:40.900Z,3.76
2023-02-02T18:20:09.108Z,3.67
2023-02-02T18:22:36.252Z,3.66
2023-02-02T18:25:04.849Z,3.67
2023-02-02T18:27:32.195Z,3.67
2023-02-02T18:29:59.336Z,3.61
2023-02-02T18:32:26.575Z,3.59
2023-02-02T18:34:55.942Z,3.57
2023-02-02T18:37:25.672Z,3.57
2023-02-02T18:39:53.899Z,3.55
2023-02-02T18:42:21.171Z,3.53
2023-02-02T18:44:48.316Z,3.52
2023-02-02T18:47:15.456Z,3.52
2023-02-02T18:49:42.653Z,3.50
2023-02-02T18:52:09.787Z,3.49
2023-02-02T18:54:37.065Z,3.47
2023-02-02T18:57:04.140Z,3.46
2023-02-02T18:59:32.249Z,3.44
2023-02-02T19:01:59.502Z,3.39
2023-02-02T19:04:26.668Z,3.37
2023-02-02T19:07:12.593Z,3.35
2023-02-02T19:09:39.871Z,3.33
2023-02-02T19:12:14.011Z,3.34
2023-02-02T19:14:42.413Z,3.33
2023-02-02T19:17:24.533Z,3.30
2023-02-02T19:19:51.935Z,3.30
2023-02-02T19:22:23.672Z,3.28
2023-02-02T19:24:51.218Z,3.26
2023-02-02T19:27:26.604Z,3.23
2023-02-02T19:29:56.213Z,3.19
2023-02-02T19:32:25.720Z,3.13
2023-02-02T19:34:54.285Z,3.13
2023-02-02T19:37:29.159Z,3.08
2023-02-02T19:40:08.211Z,3.08
2023-02-02T19:42:37.755Z,3.08
2023-02-02T19:45:21.255Z,3.10
2023-02-02T19:47:51.058Z,3.09
2023-02-02T19:50:22.796Z,3.10
2023-02-02T19:52:50.426Z,3.08
2023-02-02T19:55:28.306Z,3.06
2023-02-02T19:58:01.346Z,3.03
2023-02-02T20:00:30.176Z,3.04
2023-02-02T20:03:02.507Z,3.03
2023-02-02T20:05:39.810Z,2.98
2023-02-02T20:08:12.865Z,2.93
2023-02-02T20:10:44.398Z,2.94
2023-02-02T20:13:42.591Z,2.98
2023-02-02T20:16:19.026Z,2.99
2023-02-02T20:18:53.742Z,2.96
2023-02-02T20:21:41.687Z,2.90
2023-02-02T20:24:18.831Z,2.86
2023-02-02T20:26:46.411Z,2.84
2023-02-02T20:29:18.151Z,2.79
2023-02-02T20:31:46.510Z,2.74
2023-02-02T20:34:33.616Z,2.79
2023-02-02T20:37:12.573Z,2.78
2023-02-02T20:39:49.851Z,2.76
2023-02-02T20:42:17.051Z,2.75
2023-02-02T20:44:44.264Z,2.75
2023-02-02T20:47:11.444Z,2.79
2023-02-02T20:49:39.222Z,2.82
2023-02-02T20:52:10.928Z,2.79
2023-02-02T20:54:38.987Z,2.82
2023-02-02T20:57:06.284Z,2.84
2023-02-02T20:59:33.460Z,2.84
2023-02-02T21:02:00.744Z,2.82
2023-02-02T21:04:28.310Z,2.84
2023-02-02T21:06:55.506Z,2.85
2023-02-02T21:09:22.708Z,2.81
2023-02-02T21:11:49.809Z,2.84
2023-02-02T21:14:17.035Z,2.87
2023-02-02T21:16:44.266Z,2.89
2023-02-02T21:19:11.472Z,2.91
2023-02-02T21:21:38.742Z,2.91
2023-02-02T21:24:05.936Z,2.87
2023-02-02T21:26:33.212Z,2.88
2023-02-02T21:29:00.342Z,2.81
2023-02-02T21:31:27.774Z,2.79
2023-02-02T21:33:54.974Z,2.77
2023-02-02T21:36:44.639Z,2.69
2023-02-02T21:39:21.919Z,2.69
2023-02-02T21:41:50.222Z,2.70
2023-02-02T21:44:20.109Z,2.71
2023-02-02T21:46:49.117Z,2.67
2023-02-02T21:49:21.552Z,2.68
2023-02-02T21:51:48.692Z,2.68
2023-02-02T21:54:21.645Z,2.68
2023-02-02T21:56:49.219Z,2.68
2023-02-02T21:59:19.008Z,2.71
2023-02-02T22:01:48.268Z,2.76
2023-02-02T22:04:25.536Z,2.73
2023-02-02T22:06:55.018Z,2.75
2023-02-02T22:09:25.228Z,2.72
2023-02-02T22:11:56.533Z,2.66
2023-02-02T22:14:41.309Z,2.70
2023-02-02T22:17:37.698Z,2.74
2023-02-02T22:20:17.989Z,2.78
2023-02-02T22:22:47.409Z,2.81
2023-02-02T22:25:24.018Z,2.85
2023-02-02T22:27:53.436Z,2.84
2023-02-02T22:30:26.424Z,2.79
2023-02-02T22:32:58.115Z,2.71
2023-02-02T22:35:28.707Z,2.72
2023-02-02T22:37:56.533Z,2.73
2023-02-02T22:40:26.351Z,2.72
2023-02-02T22:43:00.935Z,2.70
2023-02-02T22:45:29.641Z,2.74
2023-02-02T22:47:57.947Z,2.80
2023-02-02T22:50:29.455Z,2.83
2023-02-02T22:52:57.258Z,2.83
2023-02-02T22:55:24.960Z,2.83
2023-02-02T22:57:53.024Z,2.85
2023-02-02T23:00:46.184Z,2.87
2023-02-02T23:03:16.895Z,2.85
2023-02-02T23:05:44.498Z,2.90
2023-02-02T23:08:12.248Z,2.93
2023-02-02T23:11:13.195Z,2.95
2023-02-02T23:13:40.794Z,2.93
2023-02-02T23:17:05.881Z,2.94
2023-02-02T23:19:44.510Z,2.86
2023-02-02T23:22:12.031Z,2.83
2023-02-02T23:24:42.505Z,2.89
2023-02-02T23:27:10.326Z,2.90
2023-02-02T23:29:38.035Z,2.89
2023-02-02T23:32:06.091Z,2.86
2023-02-02T23:34:34.460Z,2.83
2023-02-02T23:37:02.042Z,2.83
2023-02-02T23:39:29.921Z,2.82
2023-02-02T23:42:04.978Z,2.82
2023-02-02T23:44:41.525Z,2.84
2023-02-02T23:47:09.621Z,2.80
2023-02-02T23:49:37.697Z,2.83
2023-02-02T23:52:05.795Z,2.83
2023-02-02T23:54:53.199Z,2.84
2023-02-02T23:57:21.160Z,2.89
2023-02-02T23:59:48.896Z,2.96
